Valleyfield Airport

CSD3 · Quebec, Canadá

METAR pasados CSD3 · Valleyfield Airport

A continuación puedes ver los METAR de los últimos días. Selecciona un año para ver los METAR más antiguos, desde el año 2007 en adelante.

14 de julio de 2024

Hora Código Tiempo Temp. Visibilidad Cielo nuboso Viento METAR/SPECI
19:00
V
29 °C 15 mi - 240° 240° 11 kt METAR CYUL 142300Z 24011KT 15SM FEW045 FEW180 FEW250 29/18 A2986 RMK FU1AC1CI1 FU TR CI TR SLP112 DENSITY ALT 1800FT
18:00
V
29 °C 15 mi - 240° 240° 11 - 16 kt METAR CYUL 142200Z 24011G16KT 15SM FEW045 29/19 A2986 RMK CU2 SLP115 DENSITY ALT 1900FT
17:00
V
29 °C 15 mi - 230° 230° 12 kt METAR CYUL 142100Z 23012KT 15SM FEW045 29/19 A2988 RMK CU1 SLP119 DENSITY ALT 1900FT
16:00
V
29 °C 15 mi - 220° 220° 13 - 18 kt METAR CYUL 142000Z 22013G18KT 15SM FEW044 29/18 A2990 RMK CU2 SLP126 DENSITY ALT 1800FT
15:00
V
29 °C 15 mi - 220° 220° 12 kt METAR CYUL 141900Z 22012KT 15SM FEW032 29/18 A2991 RMK CF1 CF TR SLP131 DENSITY ALT 1800FT
14:00
V
29 °C 15 mi - 230° 230° 13 kt METAR CYUL 141800Z 23013KT 15SM SCT030 29/19 A2994 RMK CF3 CU ASOCTD SLP142 DENSITY ALT 1700FT
13:00
V
28 °C 15 mi - 240° 240° 12 kt METAR CYUL 141700Z 24012KT 15SM SCT032 28/20 A2997 RMK CF3 SLP149 DENSITY ALT 1600FT
12:00
V
27 °C 15 mi - 230° 230° 13 kt METAR CYUL 141600Z 23013KT 15SM FEW028 27/20 A2998 RMK CF1 CF TR SLP153 DENSITY ALT 1500FT
11:00
V
26 °C 15 mi - 230° 230° 12 kt METAR CYUL 141500Z 23012KT 15SM SKC 26/20 A2998 RMK SLP155 DENSITY ALT 1400FT
10:00
V
25 °C 15 mi - 220° 220° 11 kt METAR CYUL 141400Z 22011KT 15SM SKC 25/20 A2998 RMK SLP154 DENSITY ALT 1200FT
09:00
V
23 °C 30 mi - 220° 220° 10 kt METAR CYUL 141300Z 22010KT 30SM SKC 23/20 A2999 RMK SLP157 DENSITY ALT 1100FT
08:00
V
23 °C 30 mi - 250° 250° 9 kt METAR CYUL 141200Z 25009KT 30SM FEW012 23/19 A3000 RMK CF1 CF TR SLP162 DENSITY ALT 1000FT
07:00
V
21 °C 30 mi - 250° 250° 8 kt METAR CYUL 141100Z 25008KT 30SM FEW010 21/19 A3000 RMK CF1 CF TR SLP161 DENSITY ALT 800FT
06:00
V
20 °C 30 mi - 250° 250° 8 kt METAR CYUL 141000Z 25008KT 30SM SKC 20/19 A3000 RMK SLP160 DENSITY ALT 700FT
05:00
V
21 °C 15 mi - 240° 240° 10 kt METAR CYUL 140900Z 24010KT 15SM SKC 21/19 A3000 RMK SLP162 DENSITY ALT 800FT
04:00
V
21 °C 15 mi - 250° 250° 7 kt METAR CYUL 140800Z 25007KT 15SM SKC 21/19 A3000 RMK SLP162 DENSITY ALT 800FT
03:00
V
22 °C 15 mi - 240° 240° 7 kt METAR CYUL 140700Z 24007KT 15SM SKC 22/19 A3000 RMK SLP162 DENSITY ALT 900FT
02:00
V
22 °C 15 mi - 270° 270° 6 kt METAR CYUL 140600Z 27006KT 15SM SKC 22/19 A3001 RMK SLP165 DENSITY ALT 900FT
01:00
V
23 °C 15 mi - 240° 240° 6 kt METAR CYUL 140500Z 24006KT 15SM SKC 23/19 A3002 RMK SLP166 DENSITY ALT 1000FT
00:00
V
24 °C 15 mi - 250° 250° 5 kt METAR CYUL 140400Z 25005KT 15SM SKC 24/18 A3002 RMK SLP169 DENSITY ALT 1100FT

13 de julio de 2024

Hora Código Tiempo Temp. Visibilidad Cielo nuboso Viento METAR/SPECI
23:00
V
24 °C 15 mi - 260° 260° 5 kt METAR CYUL 140300Z 26005KT 220V300 15SM SKC 24/18 A3003 RMK SLP170 DENSITY ALT 1100FT
22:00
V
25 °C 15 mi - 250° 250° 6 kt METAR CYUL 140200Z 25006KT 15SM FEW250 25/17 A3002 RMK CI1 CI TR SLP169 DENSITY ALT 1200FT
21:00
V
26 °C 15 mi - 270° 270° 6 kt METAR CYUL 140100Z 27006KT 15SM FEW150 SCT250 26/17 A3003 RMK AC1CI3 AC TR SLP170 DENSITY ALT 1300FT
20:00
V
28 °C 15 mi - 270° 270° 7 kt METAR CYUL 140000Z 27007KT 15SM FEW040 SCT250 28/18 A3002 RMK CU1CI3 CU TR SLP169 DENSITY ALT 1500FT
19:00
V
28 °C 15 mi - 270° 270° 12 kt METAR CYUL 132300Z 27012KT 15SM FEW045 FEW250 28/18 A3002 RMK CU1CI1 CI TR SLP169 DENSITY ALT 1600FT
18:00
V
29 °C 15 mi - 290° 290° 9 kt METAR CYUL 132200Z 29009KT 15SM FEW040 FEW250 29/18 A3002 RMK CU1CI1 SLP168 DENSITY ALT 1700FT
17:00
V
29 °C 15 mi - 290° 290° 12 - 17 kt METAR CYUL 132100Z 29012G17KT 15SM FEW040 FEW250 29/18 A3003 RMK CF1CI1 CF TR CI TR SLP171 DENSITY ALT 1600FT
16:00
V
29 °C 15 mi - 290° 290° 10 - 17 kt METAR CYUL 132000Z 29010G17KT 15SM FEW040 SCT150 SCT250 29/18 A3004 RMK CF2AC1CI1 SLP174 DENSITY ALT 1700FT
15:00
V
29 °C 15 mi 25.000 ft 260° 260° 12 - 18 kt METAR CYUL 131900Z 26012G18KT 15SM SCT040 BKN250 29/20 A3005 RMK CU3CI2 SLP176 DENSITY ALT 1600FT
14:00
V
28 °C 15 mi 12.000 ft 280° 280° 12 kt METAR CYUL 131800Z 28012KT 210V310 15SM FEW040 BKN120 BKN250 28/18 A3006 RMK CU4AC1CI2 SLP180 DENSITY ALT 1500FT
13:00
V
27 °C 15 mi 25.000 ft 280° 280° 12 kt METAR CYUL 131700Z 28012KT 15SM SCT045 BKN250 27/18 A3008 RMK CU4CI2 SLP188 DENSITY ALT 1400FT
12:00
V
26 °C 15 mi 15.000 ft 290° 290° 8 kt METAR CYUL 131600Z 29008KT 240V320 15SM SCT030 BKN150 BKN250 26/19 A3009 RMK CF3AC2CI1 SLP192 DENSITY ALT 1300FT
11:00
V
25 °C 15 mi 25.000 ft 250° 250° 8 kt METAR CYUL 131500Z 25008KT 210V270 15SM FEW027 SCT130 BKN250 25/19 A3010 RMK CU1AC3CI1 SLP195 DENSITY ALT 1100FT
10:00
V
24 °C 15 mi 11.000 ft 220° 220° 6 kt METAR CYUL 131400Z 22006KT 200V310 15SM FEW025 BKN110 BKN130 OVC250 24/20 A3010 RMK CF2AC3AC2CI1 SLP193 DENSITY ALT 1100FT
09:00
V
23 °C 30 mi 13.000 ft 270° 270° 5 kt METAR CYUL 131300Z 27005KT 250V330 30SM FEW075 BKN130 23/19 A3010 RMK ACC1AC6 ACC TR DIST SHWR NW-NE SLP196 DENSITY ALT 900FT
08:00
V
23 °C 30 mi 12.000 ft 260° 260° 8 kt METAR CYUL 131200Z 26008KT 30SM SCT075 BKN120 23/19 A3011 RMK ACC3AC3 DIST SHWR NW-N SLP197 DENSITY ALT 900FT
07:00
V
22 °C 30 mi 7.000 ft 240° 240° 4 kt METAR CYUL 131100Z 24004KT 30SM BKN070 BKN085 BKN110 22/19 A3010 RMK ACC5AC1AC1 DIST SHWR W-N SLP195 DENSITY ALT 800FT
06:00
V
22 °C 30 mi 7.800 ft 230° 230° 5 kt METAR CYUL 131000Z 23005KT 30SM BKN078 BKN095 22/19 A3010 RMK AC5AC2 SLP194 DENSITY ALT 800FT
05:00
V
22 °C 15 mi - 190° 190° 5 kt METAR CYUL 130900Z 19005KT 15SM SCT100 22/20 A3009 RMK AC3 SLP190 DENSITY ALT 800FT
04:00
V
22 °C 15 mi - 210° 210° 5 kt METAR CYUL 130800Z 21005KT 15SM FEW100 22/21 A3008 RMK AC1 AC TR SLP188 DENSITY ALT 900FT
03:00
V
23 °C 15 mi 11.000 ft 220° 220° 6 kt METAR CYUL 130700Z 22006KT 15SM BKN110 23/21 A3008 RMK AC6 SLP188 DENSITY ALT 900FT
02:00
V
23 °C 15 mi 10.000 ft 200° 200° 5 kt METAR CYUL 130600Z 20005KT 15SM BKN100 23/21 A3009 RMK AC7 SLP191 DENSITY ALT 1000FT
01:00
V
23 °C 15 mi 10.000 ft 200° 200° 5 kt METAR CYUL 130500Z 20005KT 15SM BKN100 23/21 A3010 RMK AC6 SLP195 DENSITY ALT 1000FT
00:00
V
24 °C 15 mi 9.700 ft 220° 220° 5 kt METAR CYUL 130400Z 22005KT 15SM BKN097 24/21 A3011 RMK AC7 SLP198 DENSITY ALT 1000FT

12 de julio de 2024

Hora Código Tiempo Temp. Visibilidad Cielo nuboso Viento METAR/SPECI
23:00
V
24 °C 15 mi - 220° 220° 5 kt METAR CYUL 130300Z 22005KT 15SM SCT250 24/21 A3011 RMK CC3 SLP198 DENSITY ALT 1000FT
22:00
V
25 °C 15 mi - 230° 230° 7 kt METAR CYUL 130200Z 23007KT 15SM SCT250 25/21 A3010 RMK CC4 SLP196 DENSITY ALT 1100FT
21:00
V
25 °C 30 mi - 250° 250° 6 kt METAR CYUL 130100Z 25006KT 30SM FEW025TCU FEW090 SCT250 25/21 A3009 RMK TCU1AC1CC2 TCU TR SLP191 DENSITY ALT 1100FT
20:00
V
26 °C 30 mi - 220° 220° 9 kt METAR CYUL 130000Z 22009KT 30SM FEW025TCU FEW090 SCT250 26/21 A3008 RMK TCU1AC2CC1 TCU TR SLP188 DENSITY ALT 1200FT
19:00
V
26 °C 30 mi 9.200 ft 260° 260° 6 kt METAR CYUL 122300Z 26006KT 30SM FEW025TCU BKN092 BKN250 26/21 A3008 RMK TCU1AC7CC1 TCU TR CC TR SLP188 DENSITY ALT 1300FT
18:00
V
26 °C 15 mi 7.500 ft 250° 250° 6 kt METAR CYUL 122200Z 25006KT 15SM FEW025TCU BKN075 BKN090 BKN250 26/20 A3008 RMK TCU1AC6AC1CI1 TCU TR CI TR SLP189 DENSITY ALT 1300FT
17:00
V
27 °C 15 mi 9.000 ft 240° 240° 8 kt METAR CYUL 122100Z CCA 24008KT 15SM FEW030 SCT070 BKN090 BKN250 27/19 A3009 RMK CU2AC2AC2CI1 SLP190 DENSITY ALT 1400FT
16:00
V
27 °C 15 mi 7.000 ft 240° 240° 8 kt METAR CYUL 122000Z 24008KT 15SM FEW030 BKN070 BKN250 27/20 A3010 RMK CU2AC4CI1 SLP195 DENSITY ALT 1300FT
15:00
V
26 °C 15 mi 8.000 ft 210° 210° 8 kt METAR CYUL 121900Z 21008KT 15SM FEW030 BKN080 OVC250 26/19 A3011 RMK CU2AC5CI1 SLP198 DENSITY ALT 1200FT
14:00
V
26 °C 15 mi 6.500 ft 220° 220° 8 kt METAR CYUL 121800Z 22008KT 15SM FEW030 BKN065 OVC250 26/20 A3011 RMK CU2SC5CI1 SLP198 DENSITY ALT 1200FT
13:00
V
25 °C 15 mi 9.500 ft 230° 230° 5 kt METAR CYUL 121700Z 23005KT 200V360 15SM SCT025 BKN095 BKN250 25/19 A3012 RMK SC4AC2CI1 SLP201 DENSITY ALT 1100FT
12:00
V
24 °C 15 mi 10.000 ft 280° 280° 3 kt METAR CYUL 121600Z 28003KT 200V330 15SM FEW019 SCT050 OVC100 24/19 A3013 RMK SC2SC2AC4 SLP204 DENSITY ALT 1000FT
11:00
V
23 °C 15 mi 5.000 ft 240° 240° 5 kt METAR CYUL 121500Z 24005KT 15SM FEW030 OVC050 23/19 A3014 RMK SC2SC6 SLP207 DENSITY ALT 900FT
10:00
V
23 °C 15 mi 4.200 ft 240° 240° 5 kt METAR CYUL 121400Z 24005KT 190V260 15SM FEW015 OVC042 23/18 A3014 RMK SC2SC6 SLP207 DENSITY ALT 900FT
09:00
V
22 °C 15 mi 3.200 ft 210° 210° 3 kt METAR CYUL 121300Z 21003KT 190V260 15SM FEW014TCU BKN032 BKN090 22/19 A3013 RMK TCU1SC1AC6 SC TR SLP203 DENSITY ALT 800FT
08:00
V
21 °C 15 mi 9.500 ft 360° 360° 0 kt METAR CYUL 121200Z 00000KT 15SM FEW012TCU FEW080 BKN095 BKN220 21/19 A3012 RMK TCU1AC2AC5CC1 TCU TR CC TR SLP200 DENSITY ALT 700FT
07:00
V
21 °C 15 mi 7.500 ft Var Var 2 kt METAR CYUL 121100Z VRB02KT 15SM FEW010 BKN075 BKN090 BKN220 21/19 A3010 RMK CU1AC5AC2CC1 CU TR CC TR SLP196 DENSITY ALT 600FT
06:00
V
20 °C 15 mi 9.000 ft 360° 360° 0 kt METAR CYUL 121000Z 00000KT 15SM FEW010 SCT025 BKN090 20/19 A3009 RMK CF1SC4AC3 CF TR SLP191 DENSITY ALT 600FT
05:00
V
20 °C 15 mi 7.500 ft 320° 320° 2 kt METAR CYUL 120900Z 32002KT 15SM FEW010 FEW022 BKN075 OVC090 20/19 A3008 RMK CF1SC2AC4AC2 CF TR SLP187 DENSITY ALT 600FT
04:20
M
20 °C 15 mi 2.500 ft 360° 360° 0 kt SPECI CYUL 120820Z 00000KT 15SM -DZ FEW010 BKN025 OVC072 20/19 A3007 RMK CF1SC5AC3 CF TR SLP183 DENSITY ALT 600FT
04:00
M
20 °C 15 mi 2.000 ft 360° 360° 0 kt METAR CYUL 120800Z 00000KT 15SM FEW010 BKN020 OVC075 20/19 A3007 RMK SF1SC6AC2 SF TR SLP183 DENSITY ALT 600FT
03:00
V
21 °C 15 mi 7.700 ft 010° 010° 3 kt METAR CYUL 120700Z 01003KT 15SM FEW012 FEW026 OVC077 21/19 A3005 RMK SF1SC2AC6 SF TR SLP177 DENSITY ALT 700FT
02:38
M
21 °C 15 mi 2.100 ft 350° 350° 5 kt SPECI CYUL 120638Z 35005KT 15SM BKN021 OVC075 21/19 A3005 RMK SC7AC1 SLP177 DENSITY ALT 700FT
02:00
M
21 °C 15 mi 1.200 ft 010° 010° 5 kt METAR CYUL 120600Z 01005KT 15SM BKN012 OVC017 21/19 A3005 RMK SF6SC2 SLP179 DENSITY ALT 700FT
Cambiar esta información